sensor_id;sensor_type;location;lat;lon;timestamp;P1;durP1;ratioP1;P2;durP2;ratioP2
58685;SDS011;44465;53.206;-6.106;2022-08-20T00:00:17;3.08;;;1.08;;
58685;SDS011;44465;53.206;-6.106;2022-08-20T00:02:46;4.85;;;1.00;;
58685;SDS011;44465;53.206;-6.106;2022-08-20T00:07:53;5.05;;;1.23;;
58685;SDS011;44465;53.206;-6.106;2022-08-20T00:10:19;3.00;;;1.30;;
58685;SDS011;44465;53.206;-6.106;2022-08-20T00:12:47;6.55;;;1.30;;
58685;SDS011;44465;53.206;-6.106;2022-08-20T00:15:14;1.45;;;1.00;;
58685;SDS011;44465;53.206;-6.106;2022-08-20T00:17:46;3.80;;;1.20;;
58685;SDS011;44465;53.206;-6.106;2022-08-20T00:20:14;3.95;;;1.20;;
58685;SDS011;44465;53.206;-6.106;2022-08-20T00:22:41;4.00;;;1.10;;
58685;SDS011;44465;53.206;-6.106;2022-08-20T00:25:07;2.03;;;0.80;;
58685;SDS011;44465;53.206;-6.106;2022-08-20T00:27:34;3.80;;;1.00;;
58685;SDS011;44465;53.206;-6.106;2022-08-20T00:30:00;3.17;;;1.00;;
58685;SDS011;44465;53.206;-6.106;2022-08-20T00:32:25;2.63;;;1.00;;
58685;SDS011;44465;53.206;-6.106;2022-08-20T00:34:51;2.85;;;0.90;;
58685;SDS011;44465;53.206;-6.106;2022-08-20T00:37:16;1.60;;;0.88;;
58685;SDS011;44465;53.206;-6.106;2022-08-20T00:39:42;2.85;;;1.17;;
58685;SDS011;44465;53.206;-6.106;2022-08-20T00:42:07;2.03;;;0.93;;
58685;SDS011;44465;53.206;-6.106;2022-08-20T00:44:33;1.65;;;1.20;;
58685;SDS011;44465;53.206;-6.106;2022-08-20T00:46:59;4.50;;;1.15;;
58685;SDS011;44465;53.206;-6.106;2022-08-20T00:49:29;2.22;;;1.17;;
58685;SDS011;44465;53.206;-6.106;2022-08-20T00:51:58;2.72;;;0.90;;
58685;SDS011;44465;53.206;-6.106;2022-08-20T00:58:17;5.95;;;1.00;;
58685;SDS011;44465;53.206;-6.106;2022-08-20T01:00:44;2.30;;;1.10;;
58685;SDS011;44465;53.206;-6.106;2022-08-20T01:03:12;2.33;;;0.98;;
58685;SDS011;44465;53.206;-6.106;2022-08-20T01:05:40;2.25;;;1.10;;
58685;SDS011;44465;53.206;-6.106;2022-08-20T01:08:12;2.55;;;1.00;;
58685;SDS011;44465;53.206;-6.106;2022-08-20T01:10:40;2.20;;;1.08;;
58685;SDS011;44465;53.206;-6.106;2022-08-20T01:13:10;3.80;;;1.20;;
58685;SDS011;44465;53.206;-6.106;2022-08-20T01:15:39;1.40;;;1.17;;
58685;SDS011;44465;53.206;-6.106;2022-08-20T01:18:09;2.42;;;1.15;;
58685;SDS011;44465;53.206;-6.106;2022-08-20T01:20:54;2.70;;;1.20;;
58685;SDS011;44465;53.206;-6.106;2022-08-20T01:23:27;2.97;;;1.02;;
58685;SDS011;44465;53.206;-6.106;2022-08-20T01:26:03;1.42;;;0.73;;
58685;SDS011;44465;53.206;-6.106;2022-08-20T01:31:09;2.30;;;0.90;;
58685;SDS011;44465;53.206;-6.106;2022-08-20T01:33:43;2.75;;;1.08;;
58685;SDS011;44465;53.206;-6.106;2022-08-20T01:36:10;1.77;;;0.98;;
58685;SDS011;44465;53.206;-6.106;2022-08-20T01:38:36;2.33;;;1.10;;
58685;SDS011;44465;53.206;-6.106;2022-08-20T01:43:46;2.85;;;0.90;;
58685;SDS011;44465;53.206;-6.106;2022-08-20T01:46:14;2.25;;;1.05;;
58685;SDS011;44465;53.206;-6.106;2022-08-20T01:48:41;1.10;;;1.00;;
58685;SDS011;44465;53.206;-6.106;2022-08-20T01:51:10;2.28;;;1.20;;
58685;SDS011;44465;53.206;-6.106;2022-08-20T01:53:49;1.25;;;1.15;;
58685;SDS011;44465;53.206;-6.106;2022-08-20T01:56:18;0.90;;;0.63;;
58685;SDS011;44465;53.206;-6.106;2022-08-20T01:58:48;5.28;;;1.20;;
58685;SDS011;44465;53.206;-6.106;2022-08-20T02:01:30;2.10;;;1.05;;
58685;SDS011;44465;53.206;-6.106;2022-08-20T02:04:00;1.92;;;0.85;;
58685;SDS011;44465;53.206;-6.106;2022-08-20T02:06:29;1.98;;;0.90;;
58685;SDS011;44465;53.206;-6.106;2022-08-20T02:08:57;3.00;;;0.90;;
58685;SDS011;44465;53.206;-6.106;2022-08-20T02:11:24;2.92;;;0.88;;
58685;SDS011;44465;53.206;-6.106;2022-08-20T02:13:51;2.55;;;1.15;;
58685;SDS011;44465;53.206;-6.106;2022-08-20T02:16:19;2.73;;;1.13;;
58685;SDS011;44465;53.206;-6.106;2022-08-20T02:18:51;1.85;;;0.93;;
58685;SDS011;44465;53.206;-6.106;2022-08-20T02:21:22;2.72;;;1.10;;
58685;SDS011;44465;53.206;-6.106;2022-08-20T02:23:51;1.95;;;1.05;;
58685;SDS011;44465;53.206;-6.106;2022-08-20T02:26:17;1.38;;;1.10;;
58685;SDS011;44465;53.206;-6.106;2022-08-20T02:28:47;2.40;;;1.10;;
58685;SDS011;44465;53.206;-6.106;2022-08-20T02:31:15;1.35;;;1.00;;
58685;SDS011;44465;53.206;-6.106;2022-08-20T02:33:42;2.03;;;0.93;;
58685;SDS011;44465;53.206;-6.106;2022-08-20T02:36:08;2.30;;;1.00;;
58685;SDS011;44465;53.206;-6.106;2022-08-20T02:38:37;2.92;;;1.10;;
58685;SDS011;44465;53.206;-6.106;2022-08-20T02:41:03;1.73;;;0.93;;
58685;SDS011;44465;53.206;-6.106;2022-08-20T02:43:29;2.33;;;0.90;;
58685;SDS011;44465;53.206;-6.106;2022-08-20T02:45:56;1.30;;;0.80;;
58685;SDS011;44465;53.206;-6.106;2022-08-20T02:50:50;1.42;;;0.90;;
58685;SDS011;44465;53.206;-6.106;2022-08-20T02:53:21;2.42;;;0.95;;
58685;SDS011;44465;53.206;-6.106;2022-08-20T02:55:47;2.45;;;1.20;;
58685;SDS011;44465;53.206;-6.106;2022-08-20T02:58:14;0.73;;;0.73;;
58685;SDS011;44465;53.206;-6.106;2022-08-20T03:00:40;1.67;;;0.90;;
58685;SDS011;44465;53.206;-6.106;2022-08-20T03:03:07;1.60;;;1.10;;
58685;SDS011;44465;53.206;-6.106;2022-08-20T03:05:33;3.17;;;1.08;;
58685;SDS011;44465;53.206;-6.106;2022-08-20T03:07:59;1.77;;;1.13;;
58685;SDS011;44465;53.206;-6.106;2022-08-20T03:10:25;2.65;;;1.40;;
58685;SDS011;44465;53.206;-6.106;2022-08-20T03:12:55;4.15;;;1.30;;
58685;SDS011;44465;53.206;-6.106;2022-08-20T03:15:20;2.40;;;0.98;;
58685;SDS011;44465;53.206;-6.106;2022-08-20T03:17:46;1.55;;;1.00;;
58685;SDS011;44465;53.206;-6.106;2022-08-20T03:20:11;1.50;;;0.88;;
58685;SDS011;44465;53.206;-6.106;2022-08-20T03:22:38;2.58;;;1.20;;
58685;SDS011;44465;53.206;-6.106;2022-08-20T03:25:04;3.72;;;1.20;;
58685;SDS011;44465;53.206;-6.106;2022-08-20T03:27:31;2.78;;;1.02;;
58685;SDS011;44465;53.206;-6.106;2022-08-20T03:29:56;3.13;;;1.25;;
58685;SDS011;44465;53.206;-6.106;2022-08-20T03:32:22;1.98;;;1.30;;
58685;SDS011;44465;53.206;-6.106;2022-08-20T03:34:47;3.65;;;1.10;;
58685;SDS011;44465;53.206;-6.106;2022-08-20T03:37:13;1.35;;;1.00;;
58685;SDS011;44465;53.206;-6.106;2022-08-20T03:39:38;3.72;;;1.23;;
58685;SDS011;44465;53.206;-6.106;2022-08-20T03:42:04;1.30;;;1.05;;
58685;SDS011;44465;53.206;-6.106;2022-08-20T03:44:30;2.45;;;1.30;;
58685;SDS011;44465;53.206;-6.106;2022-08-20T03:46:56;2.60;;;1.00;;
58685;SDS011;44465;53.206;-6.106;2022-08-20T03:49:22;2.75;;;1.00;;
58685;SDS011;44465;53.206;-6.106;2022-08-20T03:51:48;2.72;;;1.73;;
58685;SDS011;44465;53.206;-6.106;2022-08-20T03:54:14;2.08;;;1.15;;
58685;SDS011;44465;53.206;-6.106;2022-08-20T03:56:40;2.10;;;1.30;;
58685;SDS011;44465;53.206;-6.106;2022-08-20T03:59:05;2.10;;;1.00;;
58685;SDS011;44465;53.206;-6.106;2022-08-20T04:01:32;3.60;;;1.10;;
58685;SDS011;44465;53.206;-6.106;2022-08-20T04:03:58;2.00;;;1.13;;
58685;SDS011;44465;53.206;-6.106;2022-08-20T04:06:24;1.10;;;1.00;;
58685;SDS011;44465;53.206;-6.106;2022-08-20T04:08:50;1.73;;;1.38;;
58685;SDS011;44465;53.206;-6.106;2022-08-20T04:11:17;3.33;;;1.25;;
58685;SDS011;44465;53.206;-6.106;2022-08-20T04:13:43;2.47;;;1.33;;
58685;SDS011;44465;53.206;-6.106;2022-08-20T04:16:08;2.25;;;1.10;;
58685;SDS011;44465;53.206;-6.106;2022-08-20T04:18:34;3.67;;;1.50;;
58685;SDS011;44465;53.206;-6.106;2022-08-20T04:21:01;1.60;;;1.15;;
58685;SDS011;44465;53.206;-6.106;2022-08-20T04:23:29;3.00;;;1.70;;
58685;SDS011;44465;53.206;-6.106;2022-08-20T04:25:55;2.55;;;1.80;;
58685;SDS011;44465;53.206;-6.106;2022-08-20T04:28:23;2.00;;;1.13;;
58685;SDS011;44465;53.206;-6.106;2022-08-20T04:30:59;1.40;;;1.30;;
58685;SDS011;44465;53.206;-6.106;2022-08-20T04:33:26;2.83;;;1.35;;
58685;SDS011;44465;53.206;-6.106;2022-08-20T04:35:53;2.70;;;1.85;;
58685;SDS011;44465;53.206;-6.106;2022-08-20T04:38:22;3.40;;;1.17;;
58685;SDS011;44465;53.206;-6.106;2022-08-20T04:40:48;3.45;;;1.50;;
58685;SDS011;44465;53.206;-6.106;2022-08-20T04:43:24;3.05;;;1.45;;
58685;SDS011;44465;53.206;-6.106;2022-08-20T04:45:53;2.50;;;1.30;;
58685;SDS011;44465;53.206;-6.106;2022-08-20T04:48:22;4.72;;;1.20;;
58685;SDS011;44465;53.206;-6.106;2022-08-20T04:50:49;3.10;;;1.25;;
58685;SDS011;44465;53.206;-6.106;2022-08-20T04:53:16;3.03;;;1.40;;
58685;SDS011;44465;53.206;-6.106;2022-08-20T04:55:44;3.97;;;1.58;;
58685;SDS011;44465;53.206;-6.106;2022-08-20T04:58:12;2.72;;;1.50;;
58685;SDS011;44465;53.206;-6.106;2022-08-20T05:00:43;2.63;;;1.60;;
58685;SDS011;44465;53.206;-6.106;2022-08-20T05:03:10;2.63;;;1.60;;
58685;SDS011;44465;53.206;-6.106;2022-08-20T05:05:36;2.97;;;1.40;;
58685;SDS011;44465;53.206;-6.106;2022-08-20T05:08:02;2.58;;;1.15;;
58685;SDS011;44465;53.206;-6.106;2022-08-20T05:10:28;4.47;;;1.45;;
58685;SDS011;44465;53.206;-6.106;2022-08-20T05:12:55;2.05;;;1.58;;
58685;SDS011;44465;53.206;-6.106;2022-08-20T05:15:21;3.78;;;1.67;;
58685;SDS011;44465;53.206;-6.106;2022-08-20T05:20:18;2.80;;;1.30;;
58685;SDS011;44465;53.206;-6.106;2022-08-20T05:22:43;3.45;;;1.40;;
58685;SDS011;44465;53.206;-6.106;2022-08-20T05:25:09;1.75;;;1.20;;
58685;SDS011;44465;53.206;-6.106;2022-08-20T05:27:35;3.78;;;1.38;;
58685;SDS011;44465;53.206;-6.106;2022-08-20T05:30:08;1.63;;;1.48;;
58685;SDS011;44465;53.206;-6.106;2022-08-20T05:32:35;1.92;;;1.58;;
58685;SDS011;44465;53.206;-6.106;2022-08-20T05:35:04;1.67;;;1.13;;
58685;SDS011;44465;53.206;-6.106;2022-08-20T05:37:37;2.75;;;1.52;;
58685;SDS011;44465;53.206;-6.106;2022-08-20T05:40:14;2.42;;;1.35;;
58685;SDS011;44465;53.206;-6.106;2022-08-20T05:42:40;2.33;;;1.15;;
58685;SDS011;44465;53.206;-6.106;2022-08-20T05:45:06;3.17;;;1.55;;
58685;SDS011;44465;53.206;-6.106;2022-08-20T05:47:32;3.90;;;1.50;;
58685;SDS011;44465;53.206;-6.106;2022-08-20T05:50:02;2.22;;;1.52;;
58685;SDS011;44465;53.206;-6.106;2022-08-20T05:54:55;5.18;;;1.40;;
58685;SDS011;44465;53.206;-6.106;2022-08-20T05:57:20;2.97;;;1.60;;
58685;SDS011;44465;53.206;-6.106;2022-08-20T05:59:47;4.40;;;1.90;;
58685;SDS011;44465;53.206;-6.106;2022-08-20T06:02:13;2.45;;;1.60;;
58685;SDS011;44465;53.206;-6.106;2022-08-20T06:04:57;2.97;;;1.40;;
58685;SDS011;44465;53.206;-6.106;2022-08-20T06:07:23;2.70;;;1.73;;
58685;SDS011;44465;53.206;-6.106;2022-08-20T06:09:48;3.10;;;1.50;;
58685;SDS011;44465;53.206;-6.106;2022-08-20T06:12:14;3.78;;;2.25;;
58685;SDS011;44465;53.206;-6.106;2022-08-20T06:14:41;3.03;;;1.25;;
58685;SDS011;44465;53.206;-6.106;2022-08-20T06:17:14;3.58;;;1.60;;
58685;SDS011;44465;53.206;-6.106;2022-08-20T06:19:42;2.72;;;1.40;;
58685;SDS011;44465;53.206;-6.106;2022-08-20T06:22:10;2.20;;;1.85;;
58685;SDS011;44465;53.206;-6.106;2022-08-20T06:24:37;2.35;;;1.33;;
58685;SDS011;44465;53.206;-6.106;2022-08-20T06:27:03;2.90;;;1.75;;
58685;SDS011;44465;53.206;-6.106;2022-08-20T06:29:29;2.83;;;1.70;;
58685;SDS011;44465;53.206;-6.106;2022-08-20T06:31:57;2.65;;;1.83;;
58685;SDS011;44465;53.206;-6.106;2022-08-20T06:34:24;3.08;;;1.58;;
58685;SDS011;44465;53.206;-6.106;2022-08-20T06:36:53;3.40;;;1.30;;
58685;SDS011;44465;53.206;-6.106;2022-08-20T06:39:19;3.53;;;1.83;;
58685;SDS011;44465;53.206;-6.106;2022-08-20T06:41:44;2.92;;;1.73;;
58685;SDS011;44465;53.206;-6.106;2022-08-20T06:44:10;2.65;;;1.60;;
58685;SDS011;44465;53.206;-6.106;2022-08-20T06:46:36;3.53;;;1.63;;
58685;SDS011;44465;53.206;-6.106;2022-08-20T06:49:03;2.15;;;1.50;;
58685;SDS011;44465;53.206;-6.106;2022-08-20T06:51:30;3.25;;;1.60;;
58685;SDS011;44465;53.206;-6.106;2022-08-20T06:53:56;3.08;;;2.00;;
58685;SDS011;44465;53.206;-6.106;2022-08-20T06:56:22;3.13;;;1.52;;
58685;SDS011;44465;53.206;-6.106;2022-08-20T06:58:47;3.17;;;1.65;;
58685;SDS011;44465;53.206;-6.106;2022-08-20T07:01:13;6.43;;;1.98;;
58685;SDS011;44465;53.206;-6.106;2022-08-20T07:03:40;5.28;;;1.70;;
58685;SDS011;44465;53.206;-6.106;2022-08-20T07:06:07;2.67;;;1.70;;
58685;SDS011;44465;53.206;-6.106;2022-08-20T07:08:33;2.90;;;1.40;;
58685;SDS011;44465;53.206;-6.106;2022-08-20T07:10:59;2.22;;;1.48;;
58685;SDS011;44465;53.206;-6.106;2022-08-20T07:13:25;3.80;;;1.95;;
58685;SDS011;44465;53.206;-6.106;2022-08-20T07:15:51;3.05;;;1.70;;
58685;SDS011;44465;53.206;-6.106;2022-08-20T07:18:16;2.10;;;1.27;;
58685;SDS011;44465;53.206;-6.106;2022-08-20T07:20:42;2.58;;;1.70;;
58685;SDS011;44465;53.206;-6.106;2022-08-20T07:23:08;4.07;;;1.60;;
58685;SDS011;44465;53.206;-6.106;2022-08-20T07:25:36;4.40;;;1.70;;
58685;SDS011;44465;53.206;-6.106;2022-08-20T07:28:04;3.93;;;1.60;;
58685;SDS011;44465;53.206;-6.106;2022-08-20T07:30:32;4.20;;;1.50;;
58685;SDS011;44465;53.206;-6.106;2022-08-20T07:33:17;2.15;;;1.50;;
58685;SDS011;44465;53.206;-6.106;2022-08-20T07:35:42;3.90;;;1.80;;
58685;SDS011;44465;53.206;-6.106;2022-08-20T07:38:16;4.45;;;1.90;;
58685;SDS011;44465;53.206;-6.106;2022-08-20T07:40:48;4.28;;;2.28;;
58685;SDS011;44465;53.206;-6.106;2022-08-20T07:43:15;2.85;;;1.75;;
58685;SDS011;44465;53.206;-6.106;2022-08-20T07:45:41;3.22;;;1.73;;
58685;SDS011;44465;53.206;-6.106;2022-08-20T07:48:07;3.20;;;2.03;;
58685;SDS011;44465;53.206;-6.106;2022-08-20T07:50:36;3.10;;;2.25;;
58685;SDS011;44465;53.206;-6.106;2022-08-20T07:53:03;3.47;;;1.45;;
58685;SDS011;44465;53.206;-6.106;2022-08-20T07:55:29;3.78;;;1.85;;
58685;SDS011;44465;53.206;-6.106;2022-08-20T07:57:55;3.03;;;1.90;;
58685;SDS011;44465;53.206;-6.106;2022-08-20T08:02:48;6.55;;;2.13;;
58685;SDS011;44465;53.206;-6.106;2022-08-20T08:05:14;5.20;;;2.00;;
58685;SDS011;44465;53.206;-6.106;2022-08-20T08:07:41;4.63;;;1.77;;
58685;SDS011;44465;53.206;-6.106;2022-08-20T08:10:08;3.03;;;1.80;;
58685;SDS011;44465;53.206;-6.106;2022-08-20T08:12:41;3.83;;;1.80;;
58685;SDS011;44465;53.206;-6.106;2022-08-20T08:15:14;2.97;;;1.60;;
58685;SDS011;44465;53.206;-6.106;2022-08-20T08:17:42;5.40;;;2.05;;
58685;SDS011;44465;53.206;-6.106;2022-08-20T08:20:10;2.97;;;1.80;;
58685;SDS011;44465;53.206;-6.106;2022-08-20T08:22:36;2.92;;;1.90;;
58685;SDS011;44465;53.206;-6.106;2022-08-20T08:25:08;3.67;;;1.80;;
58685;SDS011;44465;53.206;-6.106;2022-08-20T08:27:39;4.15;;;2.20;;
58685;SDS011;44465;53.206;-6.106;2022-08-20T08:30:05;4.20;;;1.63;;
58685;SDS011;44465;53.206;-6.106;2022-08-20T08:32:33;3.40;;;1.83;;
58685;SDS011;44465;53.206;-6.106;2022-08-20T08:35:02;5.25;;;1.77;;
58685;SDS011;44465;53.206;-6.106;2022-08-20T08:37:30;3.92;;;1.70;;
58685;SDS011;44465;53.206;-6.106;2022-08-20T08:39:55;4.45;;;2.03;;
58685;SDS011;44465;53.206;-6.106;2022-08-20T08:42:34;4.97;;;2.17;;
58685;SDS011;44465;53.206;-6.106;2022-08-20T08:45:06;6.60;;;1.90;;
58685;SDS011;44465;53.206;-6.106;2022-08-20T08:47:33;5.40;;;2.00;;
58685;SDS011;44465;53.206;-6.106;2022-08-20T08:50:02;3.65;;;1.70;;
58685;SDS011;44465;53.206;-6.106;2022-08-20T08:52:31;3.33;;;2.00;;
58685;SDS011;44465;53.206;-6.106;2022-08-20T08:55:00;5.03;;;1.73;;
58685;SDS011;44465;53.206;-6.106;2022-08-20T08:57:29;3.13;;;1.80;;
58685;SDS011;44465;53.206;-6.106;2022-08-20T08:59:59;11.73;;;2.28;;
58685;SDS011;44465;53.206;-6.106;2022-08-20T09:02:28;31.63;;;3.67;;
58685;SDS011;44465;53.206;-6.106;2022-08-20T09:04:55;18.80;;;2.85;;
58685;SDS011;44465;53.206;-6.106;2022-08-20T09:07:25;11.65;;;3.35;;
58685;SDS011;44465;53.206;-6.106;2022-08-20T09:09:55;10.40;;;2.13;;
58685;SDS011;44465;53.206;-6.106;2022-08-20T09:12:22;7.32;;;2.10;;
58685;SDS011;44465;53.206;-6.106;2022-08-20T09:14:50;8.63;;;2.65;;
58685;SDS011;44465;53.206;-6.106;2022-08-20T09:17:17;11.75;;;2.92;;
58685;SDS011;44465;53.206;-6.106;2022-08-20T09:19:44;7.72;;;2.13;;
58685;SDS011;44465;53.206;-6.106;2022-08-20T09:22:11;12.27;;;3.00;;
58685;SDS011;44465;53.206;-6.106;2022-08-20T09:24:39;7.93;;;2.30;;
58685;SDS011;44465;53.206;-6.106;2022-08-20T09:27:05;6.57;;;2.10;;
58685;SDS011;44465;53.206;-6.106;2022-08-20T09:29:31;5.90;;;1.90;;
58685;SDS011;44465;53.206;-6.106;2022-08-20T09:34:37;6.68;;;2.05;;
58685;SDS011;44465;53.206;-6.106;2022-08-20T09:37:03;5.15;;;2.05;;
58685;SDS011;44465;53.206;-6.106;2022-08-20T09:39:29;4.47;;;2.10;;
58685;SDS011;44465;53.206;-6.106;2022-08-20T09:41:54;7.70;;;2.25;;
58685;SDS011;44465;53.206;-6.106;2022-08-20T09:44:30;9.18;;;2.40;;
58685;SDS011;44465;53.206;-6.106;2022-08-20T09:46:55;7.50;;;2.00;;
58685;SDS011;44465;53.206;-6.106;2022-08-20T09:49:20;8.55;;;2.33;;
58685;SDS011;44465;53.206;-6.106;2022-08-20T09:51:46;6.25;;;2.10;;
58685;SDS011;44465;53.206;-6.106;2022-08-20T09:54:11;3.80;;;2.03;;
58685;SDS011;44465;53.206;-6.106;2022-08-20T09:56:37;5.85;;;2.00;;
58685;SDS011;44465;53.206;-6.106;2022-08-20T09:59:02;4.55;;;2.10;;
58685;SDS011;44465;53.206;-6.106;2022-08-20T10:01:28;5.82;;;1.92;;
58685;SDS011;44465;53.206;-6.106;2022-08-20T10:03:53;4.70;;;2.00;;
58685;SDS011;44465;53.206;-6.106;2022-08-20T10:06:19;4.32;;;1.83;;
58685;SDS011;44465;53.206;-6.106;2022-08-20T10:08:45;6.78;;;1.98;;
58685;SDS011;44465;53.206;-6.106;2022-08-20T10:11:11;6.82;;;2.55;;
58685;SDS011;44465;53.206;-6.106;2022-08-20T10:13:37;5.00;;;2.00;;
58685;SDS011;44465;53.206;-6.106;2022-08-20T10:16:02;6.55;;;2.53;;
58685;SDS011;44465;53.206;-6.106;2022-08-20T10:18:28;6.25;;;2.17;;
58685;SDS011;44465;53.206;-6.106;2022-08-20T10:20:53;4.43;;;2.15;;
58685;SDS011;44465;53.206;-6.106;2022-08-20T10:23:19;2.55;;;1.77;;
58685;SDS011;44465;53.206;-6.106;2022-08-20T10:25:44;2.80;;;1.98;;
58685;SDS011;44465;53.206;-6.106;2022-08-20T10:28:10;11.07;;;2.50;;
58685;SDS011;44465;53.206;-6.106;2022-08-20T10:30:35;12.93;;;3.25;;
58685;SDS011;44465;53.206;-6.106;2022-08-20T10:33:01;14.35;;;4.30;;
58685;SDS011;44465;53.206;-6.106;2022-08-20T10:35:26;10.18;;;2.53;;
58685;SDS011;44465;53.206;-6.106;2022-08-20T10:37:52;7.68;;;2.80;;
58685;SDS011;44465;53.206;-6.106;2022-08-20T10:40:18;12.93;;;3.03;;
58685;SDS011;44465;53.206;-6.106;2022-08-20T10:42:43;5.65;;;2.40;;
58685;SDS011;44465;53.206;-6.106;2022-08-20T10:45:10;9.45;;;2.67;;
58685;SDS011;44465;53.206;-6.106;2022-08-20T10:47:36;8.98;;;2.70;;
58685;SDS011;44465;53.206;-6.106;2022-08-20T10:50:03;6.70;;;2.38;;
58685;SDS011;44465;53.206;-6.106;2022-08-20T10:52:31;6.57;;;3.00;;
58685;SDS011;44465;53.206;-6.106;2022-08-20T10:54:56;10.90;;;3.10;;
58685;SDS011;44465;53.206;-6.106;2022-08-20T10:57:26;8.43;;;2.90;;
58685;SDS011;44465;53.206;-6.106;2022-08-20T10:59:53;8.35;;;3.38;;
58685;SDS011;44465;53.206;-6.106;2022-08-20T11:02:20;10.70;;;3.20;;
58685;SDS011;44465;53.206;-6.106;2022-08-20T11:04:47;10.63;;;3.20;;
58685;SDS011;44465;53.206;-6.106;2022-08-20T11:09:50;5.72;;;2.55;;
58685;SDS011;44465;53.206;-6.106;2022-08-20T11:12:17;9.85;;;3.00;;
58685;SDS011;44465;53.206;-6.106;2022-08-20T11:17:09;8.98;;;3.00;;
58685;SDS011;44465;53.206;-6.106;2022-08-20T11:19:39;9.88;;;2.85;;
58685;SDS011;44465;53.206;-6.106;2022-08-20T11:22:06;6.88;;;2.85;;
58685;SDS011;44465;53.206;-6.106;2022-08-20T11:24:32;4.90;;;2.70;;
58685;SDS011;44465;53.206;-6.106;2022-08-20T11:26:58;8.13;;;2.53;;
58685;SDS011;44465;53.206;-6.106;2022-08-20T11:29:23;10.45;;;2.75;;
58685;SDS011;44465;53.206;-6.106;2022-08-20T11:31:49;6.57;;;2.42;;
58685;SDS011;44465;53.206;-6.106;2022-08-20T11:34:15;7.85;;;2.50;;
58685;SDS011;44465;53.206;-6.106;2022-08-20T11:36:41;3.25;;;2.30;;
58685;SDS011;44465;53.206;-6.106;2022-08-20T11:39:07;5.63;;;2.47;;
58685;SDS011;44465;53.206;-6.106;2022-08-20T11:41:33;7.45;;;2.35;;
58685;SDS011;44465;53.206;-6.106;2022-08-20T11:43:59;6.23;;;2.80;;
58685;SDS011;44465;53.206;-6.106;2022-08-20T11:46:25;6.53;;;2.22;;
58685;SDS011;44465;53.206;-6.106;2022-08-20T11:48:50;4.10;;;2.35;;
58685;SDS011;44465;53.206;-6.106;2022-08-20T11:51:16;5.72;;;2.17;;
58685;SDS011;44465;53.206;-6.106;2022-08-20T11:53:41;7.05;;;2.47;;
58685;SDS011;44465;53.206;-6.106;2022-08-20T11:56:07;6.82;;;2.50;;
58685;SDS011;44465;53.206;-6.106;2022-08-20T11:58:32;4.60;;;2.50;;
58685;SDS011;44465;53.206;-6.106;2022-08-20T12:00:58;3.95;;;2.30;;
58685;SDS011;44465;53.206;-6.106;2022-08-20T12:03:23;4.57;;;2.30;;
58685;SDS011;44465;53.206;-6.106;2022-08-20T12:05:49;5.03;;;2.30;;
58685;SDS011;44465;53.206;-6.106;2022-08-20T12:08:14;4.57;;;2.17;;
58685;SDS011;44465;53.206;-6.106;2022-08-20T12:10:40;5.30;;;2.35;;
58685;SDS011;44465;53.206;-6.106;2022-08-20T12:13:06;6.85;;;2.60;;
58685;SDS011;44465;53.206;-6.106;2022-08-20T12:15:35;4.75;;;2.22;;
58685;SDS011;44465;53.206;-6.106;2022-08-20T12:18:05;4.40;;;2.17;;
58685;SDS011;44465;53.206;-6.106;2022-08-20T12:20:32;5.50;;;2.13;;
58685;SDS011;44465;53.206;-6.106;2022-08-20T12:22:58;5.85;;;2.10;;
58685;SDS011;44465;53.206;-6.106;2022-08-20T12:25:24;3.92;;;1.95;;
58685;SDS011;44465;53.206;-6.106;2022-08-20T12:27:50;2.17;;;1.80;;
58685;SDS011;44465;53.206;-6.106;2022-08-20T12:30:16;5.00;;;2.00;;
58685;SDS011;44465;53.206;-6.106;2022-08-20T12:32:43;10.10;;;2.50;;
58685;SDS011;44465;53.206;-6.106;2022-08-20T12:35:10;27.38;;;4.18;;
58685;SDS011;44465;53.206;-6.106;2022-08-20T12:37:37;26.15;;;3.75;;
58685;SDS011;44465;53.206;-6.106;2022-08-20T12:40:04;7.72;;;2.45;;
58685;SDS011;44465;53.206;-6.106;2022-08-20T12:42:31;17.58;;;3.78;;
58685;SDS011;44465;53.206;-6.106;2022-08-20T12:44:57;10.30;;;2.55;;
58685;SDS011;44465;53.206;-6.106;2022-08-20T12:49:53;19.60;;;4.38;;
58685;SDS011;44465;53.206;-6.106;2022-08-20T12:52:21;32.25;;;9.73;;
58685;SDS011;44465;53.206;-6.106;2022-08-20T12:54:47;48.00;;;15.70;;
58685;SDS011;44465;53.206;-6.106;2022-08-20T12:57:13;67.05;;;22.90;;
58685;SDS011;44465;53.206;-6.106;2022-08-20T12:59:40;79.72;;;22.17;;
58685;SDS011;44465;53.206;-6.106;2022-08-20T13:02:06;66.78;;;19.45;;
58685;SDS011;44465;53.206;-6.106;2022-08-20T13:04:31;62.90;;;21.45;;
58685;SDS011;44465;53.206;-6.106;2022-08-20T13:07:00;67.90;;;20.52;;
58685;SDS011;44465;53.206;-6.106;2022-08-20T13:09:27;71.20;;;18.80;;
58685;SDS011;44465;53.206;-6.106;2022-08-20T13:11:52;56.47;;;16.90;;
58685;SDS011;44465;53.206;-6.106;2022-08-20T13:14:18;52.88;;;17.75;;
58685;SDS011;44465;53.206;-6.106;2022-08-20T13:16:43;49.85;;;15.93;;
58685;SDS011;44465;53.206;-6.106;2022-08-20T13:19:09;44.85;;;15.43;;
58685;SDS011;44465;53.206;-6.106;2022-08-20T13:21:34;55.67;;;17.33;;
58685;SDS011;44465;53.206;-6.106;2022-08-20T13:24:01;47.60;;;14.05;;
58685;SDS011;44465;53.206;-6.106;2022-08-20T13:26:27;45.92;;;13.85;;
58685;SDS011;44465;53.206;-6.106;2022-08-20T13:28:52;52.88;;;15.13;;
58685;SDS011;44465;53.206;-6.106;2022-08-20T13:31:18;42.20;;;13.70;;
58685;SDS011;44465;53.206;-6.106;2022-08-20T13:33:43;47.38;;;14.43;;
58685;SDS011;44465;53.206;-6.106;2022-08-20T13:36:09;45.20;;;12.95;;
58685;SDS011;44465;53.206;-6.106;2022-08-20T13:38:34;42.17;;;13.10;;
58685;SDS011;44465;53.206;-6.106;2022-08-20T13:41:00;40.42;;;13.00;;
58685;SDS011;44465;53.206;-6.106;2022-08-20T13:43:25;34.20;;;11.25;;
58685;SDS011;44465;53.206;-6.106;2022-08-20T13:45:51;35.72;;;12.52;;
58685;SDS011;44465;53.206;-6.106;2022-08-20T13:48:16;39.72;;;11.65;;
58685;SDS011;44465;53.206;-6.106;2022-08-20T13:50:42;33.80;;;9.43;;
58685;SDS011;44465;53.206;-6.106;2022-08-20T13:53:08;31.80;;;10.43;;
58685;SDS011;44465;53.206;-6.106;2022-08-20T13:55:33;31.45;;;10.77;;
58685;SDS011;44465;53.206;-6.106;2022-08-20T13:58:02;31.70;;;9.75;;
58685;SDS011;44465;53.206;-6.106;2022-08-20T14:00:30;43.20;;;11.25;;
58685;SDS011;44465;53.206;-6.106;2022-08-20T14:05:22;25.35;;;9.65;;
58685;SDS011;44465;53.206;-6.106;2022-08-20T14:07:48;31.05;;;10.52;;
58685;SDS011;44465;53.206;-6.106;2022-08-20T14:10:19;29.48;;;9.35;;
58685;SDS011;44465;53.206;-6.106;2022-08-20T14:12:49;20.70;;;6.93;;
58685;SDS011;44465;53.206;-6.106;2022-08-20T14:15:15;20.08;;;6.03;;
58685;SDS011;44465;53.206;-6.106;2022-08-20T14:17:42;17.33;;;4.93;;
58685;SDS011;44465;53.206;-6.106;2022-08-20T14:20:16;24.48;;;6.20;;
58685;SDS011;44465;53.206;-6.106;2022-08-20T14:22:44;23.73;;;4.70;;
58685;SDS011;44465;53.206;-6.106;2022-08-20T14:25:10;15.63;;;4.18;;
58685;SDS011;44465;53.206;-6.106;2022-08-20T14:27:36;14.05;;;4.20;;
58685;SDS011;44465;53.206;-6.106;2022-08-20T14:30:05;12.57;;;3.78;;
58685;SDS011;44465;53.206;-6.106;2022-08-20T14:32:33;8.68;;;3.67;;
58685;SDS011;44465;53.206;-6.106;2022-08-20T14:34:59;9.93;;;3.92;;
58685;SDS011;44465;53.206;-6.106;2022-08-20T14:37:33;10.18;;;4.38;;
58685;SDS011;44465;53.206;-6.106;2022-08-20T14:40:03;11.27;;;4.28;;
58685;SDS011;44465;53.206;-6.106;2022-08-20T14:42:30;9.20;;;3.95;;
58685;SDS011;44465;53.206;-6.106;2022-08-20T14:44:56;9.93;;;3.75;;
58685;SDS011;44465;53.206;-6.106;2022-08-20T14:47:35;10.75;;;3.90;;
58685;SDS011;44465;53.206;-6.106;2022-08-20T14:50:07;11.32;;;4.10;;
58685;SDS011;44465;53.206;-6.106;2022-08-20T14:52:35;9.27;;;3.60;;
58685;SDS011;44465;53.206;-6.106;2022-08-20T14:55:05;19.83;;;5.05;;
58685;SDS011;44465;53.206;-6.106;2022-08-20T14:57:33;15.60;;;4.72;;
58685;SDS011;44465;53.206;-6.106;2022-08-20T14:59:58;14.57;;;4.30;;
58685;SDS011;44465;53.206;-6.106;2022-08-20T15:02:24;18.35;;;5.05;;
58685;SDS011;44465;53.206;-6.106;2022-08-20T15:04:50;10.05;;;3.70;;